Time;durP1;ratioP1;P1;durP2;ratioP2;P2;SDS_P1;SDS_P2;PMS_P1;PMS_P2;Temp;Humidity;BMP_temperature;BMP_pressure;BME280_temperature;BME280_humidity;BME280_pressure;Samples;Min_cycle;Max_cycle;Signal;HPM_P1;HPM_P2
2022/01/26 00:07:54;;;;;;;39.97;24.55;;;;;;;;;;5014468;28;20060;-71
2022/01/26 00:10:20;;;;;;;27.50;18.83;;;;;;;;;;5015123;28;20529;-71
2022/01/26 00:12:46;;;;;;;29.55;17.58;;;;;;;;;;5014919;28;20045;-71
2022/01/26 00:15:13;;;;;;;39.72;26.90;;;;;;;;;;5014387;28;20050;-71
2022/01/26 00:17:39;;;;;;;41.05;27.02;;;;;;;;;;5014591;28;20041;-71
2022/01/26 00:38:41;;;;;;;32.00;19.17;;;;;;;;;;5017714;28;20037;-71
2022/01/26 00:41:11;;;;;;;31.67;20.00;;;;;;;;;;5018328;28;20038;-71
2022/01/26 00:43:38;;;;;;;24.20;17.75;;;;;;;;;;5018885;28;20065;-71
2022/01/26 00:46:07;;;;;;;29.65;17.98;;;;;;;;;;5018038;28;20042;-72
2022/01/26 00:48:36;;;;;;;32.97;18.05;;;;;;;;;;5017544;28;20037;-72
2022/01/26 00:51:05;;;;;;;33.63;20.65;;;;;;;;;;5017775;28;20044;-71
2022/01/26 00:53:34;;;;;;;27.55;19.27;;;;;;;;;;5017961;28;20034;-72
2022/01/26 00:56:01;;;;;;;27.70;17.92;;;;;;;;;;5017586;28;20030;-72
2022/01/26 00:58:27;;;;;;;25.17;17.25;;;;;;;;;;5017841;28;20512;-72
2022/01/26 01:00:55;;;;;;;24.00;16.08;;;;;;;;;;5017749;28;20030;-72
2022/01/26 01:03:23;;;;;;;29.60;17.30;;;;;;;;;;5017515;28;20400;-72
2022/01/26 01:05:56;;;;;;;28.92;16.63;;;;;;;;;;5017398;28;20036;-72
2022/01/26 01:08:24;;;;;;;24.75;15.27;;;;;;;;;;5017450;28;20044;-72
2022/01/26 01:10:51;;;;;;;22.92;15.02;;;;;;;;;;5017764;28;20030;-72
2022/01/26 01:13:21;;;;;;;27.23;17.75;;;;;;;;;;5017487;28;20037;-72
2022/01/26 01:15:48;;;;;;;23.90;15.45;;;;;;;;;;5017074;28;20062;-72
2022/01/26 01:18:25;;;;;;;21.80;15.40;;;;;;;;;;5017626;28;20077;-72
2022/01/26 01:31:00;;;;;;;21.33;13.40;;;;;;;;;;5017470;28;20503;-71
2022/01/26 01:33:32;;;;;;;23.35;14.55;;;;;;;;;;5017466;28;20196;-71
2022/01/26 01:35:59;;;;;;;29.15;14.77;;;;;;;;;;5017143;28;20120;-71
2022/01/26 01:38:28;;;;;;;21.90;14.35;;;;;;;;;;5017619;28;20061;-71
2022/01/26 01:40:55;;;;;;;22.25;14.38;;;;;;;;;;5016306;28;20042;-71
2022/01/26 01:43:22;;;;;;;22.98;13.38;;;;;;;;;;5017144;28;20076;-71
2022/01/26 01:45:51;;;;;;;20.25;13.68;;;;;;;;;;5017486;28;20100;-72
2022/01/26 01:48:20;;;;;;;22.35;13.60;;;;;;;;;;5016992;28;20474;-72
2022/01/26 01:50:48;;;;;;;21.00;13.00;;;;;;;;;;5016687;28;20413;-72
2022/01/26 01:53:16;;;;;;;24.38;14.20;;;;;;;;;;5017032;28;20095;-72
2022/01/26 01:55:47;;;;;;;25.85;15.93;;;;;;;;;;5016984;28;20365;-72
2022/01/26 01:58:13;;;;;;;21.05;14.68;;;;;;;;;;5016764;28;20164;-72
2022/01/26 02:00:40;;;;;;;21.67;13.55;;;;;;;;;;5016948;28;20037;-72
2022/01/26 02:03:06;;;;;;;23.05;14.38;;;;;;;;;;5016510;28;20527;-71
2022/01/26 02:05:32;;;;;;;21.50;14.38;;;;;;;;;;5016704;28;20048;-72
2022/01/26 02:07:59;;;;;;;20.33;12.98;;;;;;;;;;5016487;28;20104;-72
2022/01/26 02:10:28;;;;;;;20.20;12.32;;;;;;;;;;5016836;28;20037;-72
2022/01/26 02:13:00;;;;;;;16.38;11.15;;;;;;;;;;5016770;28;20060;-72
2022/01/26 02:15:39;;;;;;;15.45;11.43;;;;;;;;;;5016637;28;20061;-72
2022/01/26 02:56:29;;;;;;;20.20;10.68;;;;;;;;;;5015729;28;20447;-71
2022/01/26 03:06:34;;;;;;;17.27;10.13;;;;;;;;;;5015764;28;20226;-71
2022/01/26 03:09:07;;;;;;;20.15;12.40;;;;;;;;;;5015430;28;20029;-71
2022/01/26 03:11:36;;;;;;;16.58;10.50;;;;;;;;;;5015400;28;20030;-71
2022/01/26 03:14:13;;;;;;;18.38;11.35;;;;;;;;;;5015287;28;20481;-72
2022/01/26 03:16:45;;;;;;;19.85;11.20;;;;;;;;;;5015668;28;20030;-72
2022/01/26 03:19:20;;;;;;;15.85;10.05;;;;;;;;;;5015272;28;20046;-72
2022/01/26 03:30:05;;;;;;;19.98;10.93;;;;;;;;;;5014892;28;20024;-71
2022/01/26 03:32:52;;;;;;;16.77;9.50;;;;;;;;;;5015418;28;20041;-72
2022/01/26 03:36:10;;;;;;;24.48;11.75;;;;;;;;;;5015465;28;20030;-72
2022/01/26 03:38:05;;;;;;;18.20;9.85;;;;;;;;;;5014674;28;20104;-71
2022/01/26 03:40:34;;;;;;;27.45;14.40;;;;;;;;;;5014916;28;20064;-72
2022/01/26 03:43:00;;;;;;;24.13;14.10;;;;;;;;;;5015112;28;20084;-71
2022/01/26 03:45:27;;;;;;;21.92;11.85;;;;;;;;;;5015228;28;20532;-71
2022/01/26 03:47:54;;;;;;;16.02;10.90;;;;;;;;;;5015170;28;20104;-71
2022/01/26 03:50:21;;;;;;;15.55;10.18;;;;;;;;;;5015617;28;20034;-71
2022/01/26 03:52:47;;;;;;;17.98;11.10;;;;;;;;;;5014952;28;20103;-71
2022/01/26 03:55:13;;;;;;;21.20;11.40;;;;;;;;;;5014835;28;20433;-72
2022/01/26 03:57:39;;;;;;;16.92;11.18;;;;;;;;;;5014734;28;20034;-71
2022/01/26 04:00:07;;;;;;;13.40;8.80;;;;;;;;;;5015389;28;20065;-72
2022/01/26 04:02:34;;;;;;;18.70;10.90;;;;;;;;;;5014916;28;20037;-72
2022/01/26 04:05:03;;;;;;;19.23;11.48;;;;;;;;;;5017396;28;20038;-72
2022/01/26 04:07:30;;;;;;;17.17;10.43;;;;;;;;;;5019074;28;20037;-72
2022/01/26 04:10:04;;;;;;;17.17;10.82;;;;;;;;;;5019620;28;20036;-72
2022/01/26 04:12:32;;;;;;;14.00;9.45;;;;;;;;;;5019098;28;20059;-72
2022/01/26 04:15:05;;;;;;;16.52;9.38;;;;;;;;;;5018562;28;20060;-72
2022/01/26 04:17:31;;;;;;;12.30;8.07;;;;;;;;;;5018956;28;20037;-72
2022/01/26 04:19:59;;;;;;;11.25;7.25;;;;;;;;;;5018412;28;20477;-72
2022/01/26 04:22:34;;;;;;;12.68;7.47;;;;;;;;;;5018495;28;20041;-72
2022/01/26 04:25:01;;;;;;;15.35;8.32;;;;;;;;;;5018265;28;20474;-71
2022/01/26 04:27:42;;;;;;;10.82;7.75;;;;;;;;;;5018562;28;20073;-71
2022/01/26 04:30:08;;;;;;;12.25;7.85;;;;;;;;;;5018131;28;20160;-71
2022/01/26 04:32:34;;;;;;;15.82;8.18;;;;;;;;;;5018553;28;20040;-71
2022/01/26 04:35:00;;;;;;;12.85;8.07;;;;;;;;;;5018705;28;20072;-71
2022/01/26 04:37:44;;;;;;;11.88;7.32;;;;;;;;;;5018422;28;20042;-71
2022/01/26 04:40:14;;;;;;;10.32;6.60;;;;;;;;;;5017726;28;20511;-71
2022/01/26 04:42:50;;;;;;;15.25;8.93;;;;;;;;;;5018052;28;20436;-71
2022/01/26 04:45:16;;;;;;;13.52;8.75;;;;;;;;;;5017573;28;20080;-71
2022/01/26 04:47:42;;;;;;;12.23;8.73;;;;;;;;;;5017776;28;20117;-71
2022/01/26 04:50:09;;;;;;;14.10;10.77;;;;;;;;;;5017995;28;20037;-71
2022/01/26 04:52:36;;;;;;;15.13;9.80;;;;;;;;;;5017722;28;20120;-71
2022/01/26 04:55:02;;;;;;;14.57;8.60;;;;;;;;;;5018053;28;20037;-72
2022/01/26 04:57:28;;;;;;;17.02;11.00;;;;;;;;;;5017904;28;20104;-72
2022/01/26 04:59:54;;;;;;;12.98;10.27;;;;;;;;;;5017634;28;20480;-72
2022/01/26 05:02:20;;;;;;;16.85;11.63;;;;;;;;;;5017830;28;20037;-72
2022/01/26 05:04:47;;;;;;;15.40;10.75;;;;;;;;;;5017602;28;20049;-71
2022/01/26 05:07:13;;;;;;;27.85;18.63;;;;;;;;;;5017083;28;20033;-71
2022/01/26 05:09:40;;;;;;;24.77;14.88;;;;;;;;;;5017957;28;20425;-71
2022/01/26 05:12:07;;;;;;;22.58;15.15;;;;;;;;;;5017413;28;20038;-71
2022/01/26 05:14:33;;;;;;;26.83;17.17;;;;;;;;;;5017533;28;20054;-71
2022/01/26 05:16:59;;;;;;;25.10;15.18;;;;;;;;;;5017539;28;20048;-71
2022/01/26 05:19:25;;;;;;;21.83;13.98;;;;;;;;;;5017413;28;20065;-71
2022/01/26 05:21:51;;;;;;;21.38;13.18;;;;;;;;;;5017699;28;20030;-71
2022/01/26 05:24:17;;;;;;;23.52;14.18;;;;;;;;;;5017605;28;20461;-71
2022/01/26 05:26:44;;;;;;;20.23;12.73;;;;;;;;;;5017539;28;20101;-71
2022/01/26 05:29:10;;;;;;;17.52;11.60;;;;;;;;;;5017200;28;20083;-71
2022/01/26 05:31:36;;;;;;;17.25;10.82;;;;;;;;;;5017466;28;20103;-71
2022/01/26 05:34:02;;;;;;;17.27;10.10;;;;;;;;;;5017223;28;20125;-71
2022/01/26 05:36:28;;;;;;;15.85;10.98;;;;;;;;;;5017213;28;20038;-70
2022/01/26 05:38:54;;;;;;;12.80;9.70;;;;;;;;;;5017422;28;20091;-71
2022/01/26 05:41:20;;;;;;;16.73;12.20;;;;;;;;;;5017054;28;20096;-71
2022/01/26 05:43:47;;;;;;;25.50;17.15;;;;;;;;;;5017295;28;20053;-70
2022/01/26 05:46:20;;;;;;;24.70;15.55;;;;;;;;;;5017309;28;20180;-70
2022/01/26 05:48:47;;;;;;;21.80;17.63;;;;;;;;;;5017010;28;20073;-71
2022/01/26 05:51:15;;;;;;;19.10;13.63;;;;;;;;;;5017727;28;20038;-71
2022/01/26 05:53:41;;;;;;;26.98;21.13;;;;;;;;;;5016679;28;20125;-71
2022/01/26 05:56:08;;;;;;;25.25;19.88;;;;;;;;;;5016597;28;20045;-71
2022/01/26 05:58:34;;;;;;;21.98;15.85;;;;;;;;;;5016670;28;20092;-71
2022/01/26 06:01:01;;;;;;;25.30;17.60;;;;;;;;;;5016819;28;20037;-71
2022/01/26 06:03:28;;;;;;;22.60;15.85;;;;;;;;;;5016709;28;20033;-71
2022/01/26 06:05:54;;;;;;;26.00;15.35;;;;;;;;;;5016565;28;20045;-71
2022/01/26 06:08:24;;;;;;;23.45;17.40;;;;;;;;;;5016548;28;20100;-71
2022/01/26 06:10:51;;;;;;;22.00;19.02;;;;;;;;;;5017342;28;20038;-71
2022/01/26 06:13:17;;;;;;;15.95;11.30;;;;;;;;;;5016759;28;20168;-71
2022/01/26 06:15:43;;;;;;;21.45;13.00;;;;;;;;;;5015994;28;20054;-71
2022/01/26 06:18:10;;;;;;;29.75;16.55;;;;;;;;;;5016206;28;20045;-70
2022/01/26 06:20:36;;;;;;;21.90;14.15;;;;;;;;;;5016229;28;20489;-71
2022/01/26 06:23:03;;;;;;;24.67;14.45;;;;;;;;;;5016217;28;20045;-71
2022/01/26 06:25:29;;;;;;;26.02;21.00;;;;;;;;;;5016432;28;20052;-71
2022/01/26 06:27:58;;;;;;;29.92;21.42;;;;;;;;;;5015573;28;20048;-71
2022/01/26 06:30:25;;;;;;;38.00;21.45;;;;;;;;;;5016229;28;20514;-70
2022/01/26 06:32:51;;;;;;;35.55;19.60;;;;;;;;;;5015847;28;20045;-71
2022/01/26 06:35:17;;;;;;;33.58;18.13;;;;;;;;;;5015850;28;20099;-70
2022/01/26 06:37:46;;;;;;;29.30;16.60;;;;;;;;;;5015735;28;20034;-71
2022/01/26 06:40:13;;;;;;;23.48;14.65;;;;;;;;;;5015743;28;20428;-70
2022/01/26 06:43:03;;;;;;;27.23;17.60;;;;;;;;;;5015735;28;20135;-71
2022/01/26 06:45:30;;;;;;;24.45;15.45;;;;;;;;;;5015741;28;20508;-70
2022/01/26 06:50:41;;;;;;;24.33;15.52;;;;;;;;;;5015542;28;20041;-71
2022/01/26 06:53:07;;;;;;;31.35;16.75;;;;;;;;;;5015469;28;20045;-71
2022/01/26 06:55:34;;;;;;;32.10;17.08;;;;;;;;;;5015384;28;20064;-71
2022/01/26 06:58:00;;;;;;;27.33;16.80;;;;;;;;;;5015656;28;20037;-70
2022/01/26 07:00:26;;;;;;;25.60;14.90;;;;;;;;;;5015561;28;20049;-71
2022/01/26 07:02:54;;;;;;;23.23;14.25;;;;;;;;;;5015290;28;20481;-71
2022/01/26 07:05:21;;;;;;;24.10;14.02;;;;;;;;;;5014574;28;20425;-71
2022/01/26 07:07:47;;;;;;;19.98;13.27;;;;;;;;;;5013719;28;20068;-71
2022/01/26 07:10:14;;;;;;;22.88;13.60;;;;;;;;;;5015265;28;20481;-70
2022/01/26 07:12:40;;;;;;;20.15;11.73;;;;;;;;;;5015376;28;20124;-70
2022/01/26 07:23:08;;;;;;;24.10;13.23;;;;;;;;;;5013420;28;20485;-70
2022/01/26 07:25:35;;;;;;;22.63;12.18;;;;;;;;;;5014115;28;20131;-70
2022/01/26 07:28:03;;;;;;;30.90;17.00;;;;;;;;;;5014744;28;20116;-70
2022/01/26 07:30:30;;;;;;;28.95;15.77;;;;;;;;;;5010192;28;20100;-71
2022/01/26 07:32:56;;;;;;;26.00;14.57;;;;;;;;;;4997194;28;20049;-71
2022/01/26 07:35:22;;;;;;;25.65;13.48;;;;;;;;;;4994561;28;20113;-71
2022/01/26 07:37:50;;;;;;;26.20;15.65;;;;;;;;;;4994420;28;20038;-70
2022/01/26 07:40:16;;;;;;;38.92;17.80;;;;;;;;;;5004221;28;20033;-70
2022/01/26 07:42:43;;;;;;;35.88;20.83;;;;;;;;;;5013367;28;20042;-71
2022/01/26 07:45:11;;;;;;;34.90;18.00;;;;;;;;;;5012077;28;20068;-70
2022/01/26 07:47:37;;;;;;;28.48;17.52;;;;;;;;;;5011956;28;20389;-70
2022/01/26 07:50:11;;;;;;;31.98;16.80;;;;;;;;;;5011954;28;20049;-70
2022/01/26 07:52:39;;;;;;;29.40;17.38;;;;;;;;;;5011148;28;20083;-71
2022/01/26 07:55:06;;;;;;;38.78;19.45;;;;;;;;;;5009314;28;20436;-70
2022/01/26 07:57:32;;;;;;;28.95;15.63;;;;;;;;;;5011780;28;20033;-70
2022/01/26 07:59:59;;;;;;;34.30;18.52;;;;;;;;;;5011108;28;20380;-70
2022/01/26 08:02:25;;;;;;;36.10;20.05;;;;;;;;;;5010245;28;20041;-70
2022/01/26 08:04:51;;;;;;;44.92;25.05;;;;;;;;;;4997780;28;20165;-70
2022/01/26 08:07:17;;;;;;;44.30;25.98;;;;;;;;;;4992999;28;20096;-71
2022/01/26 08:09:44;;;;;;;44.60;24.63;;;;;;;;;;4998378;28;20045;-71
2022/01/26 08:12:17;;;;;;;45.33;25.60;;;;;;;;;;5012255;28;20092;-71
2022/01/26 08:14:44;;;;;;;31.00;19.00;;;;;;;;;;4996661;28;20062;-71
2022/01/26 08:17:10;;;;;;;37.05;22.70;;;;;;;;;;4992615;28;20073;-71
2022/01/26 08:19:37;;;;;;;34.00;21.52;;;;;;;;;;4999271;28;20049;-70
2022/01/26 08:22:03;;;;;;;44.28;31.75;;;;;;;;;;4996756;28;20055;-71
2022/01/26 08:24:30;;;;;;;38.08;24.38;;;;;;;;;;5001215;28;20046;-70
2022/01/26 08:27:00;;;;;;;19.27;12.23;;;;;;;;;;5003436;28;20045;-70
2022/01/26 08:29:36;;;;;;;24.30;16.33;;;;;;;;;;5012081;28;20049;-72
2022/01/26 08:32:02;;;;;;;37.42;27.17;;;;;;;;;;5011360;28;20573;-70
2022/01/26 08:34:28;;;;;;;32.90;21.67;;;;;;;;;;5012570;28;20080;-71
2022/01/26 08:36:54;;;;;;;14.57;11.48;;;;;;;;;;4999443;28;20038;-71
2022/01/26 08:39:20;;;;;;;19.02;12.70;;;;;;;;;;4993197;28;20048;-70
2022/01/26 08:41:47;;;;;;;23.10;16.38;;;;;;;;;;4992665;28;20046;-70
2022/01/26 08:44:13;;;;;;;23.70;19.10;;;;;;;;;;4992032;28;20050;-71
2022/01/26 08:46:39;;;;;;;22.00;15.23;;;;;;;;;;4990589;28;20042;-71
2022/01/26 08:49:06;;;;;;;17.58;13.18;;;;;;;;;;4992418;28;20034;-71
2022/01/26 08:51:32;;;;;;;21.30;14.60;;;;;;;;;;4993766;28;20073;-71
2022/01/26 08:53:58;;;;;;;22.45;13.60;;;;;;;;;;4996001;28;20046;-70
2022/01/26 08:56:25;;;;;;;21.20;13.40;;;;;;;;;;4996013;28;20540;-70
2022/01/26 08:58:52;;;;;;;23.55;15.85;;;;;;;;;;4995258;28;20038;-70
2022/01/26 09:01:18;;;;;;;20.08;14.65;;;;;;;;;;4994672;28;20038;-70
2022/01/26 09:03:45;;;;;;;22.40;14.05;;;;;;;;;;4996401;28;20117;-71
2022/01/26 09:06:12;;;;;;;24.02;15.20;;;;;;;;;;5010337;28;20125;-71
2022/01/26 09:08:40;;;;;;;30.20;16.80;;;;;;;;;;5016470;28;20029;-70
2022/01/26 09:11:06;;;;;;;23.38;15.65;;;;;;;;;;5011417;28;20072;-71
2022/01/26 09:13:34;;;;;;;25.38;15.07;;;;;;;;;;5000077;28;20046;-71
2022/01/26 09:16:02;;;;;;;32.40;17.08;;;;;;;;;;4996699;28;20046;-71
2022/01/26 09:18:39;;;;;;;25.30;16.45;;;;;;;;;;5007992;28;20041;-71
2022/01/26 09:21:06;;;;;;;26.00;13.30;;;;;;;;;;5015135;28;20033;-71
2022/01/26 09:23:32;;;;;;;21.92;15.02;;;;;;;;;;5014809;28;20172;-73
2022/01/26 09:25:58;;;;;;;20.27;13.85;;;;;;;;;;5015289;28;20043;-71
2022/01/26 09:28:25;;;;;;;25.48;14.02;;;;;;;;;;5015550;28;20362;-71
2022/01/26 09:30:51;;;;;;;20.15;13.57;;;;;;;;;;5016117;28;20120;-71
2022/01/26 09:33:17;;;;;;;32.47;12.80;;;;;;;;;;5015624;28;20060;-72
2022/01/26 09:35:44;;;;;;;19.35;12.05;;;;;;;;;;5015398;28;20068;-72
2022/01/26 09:38:11;;;;;;;20.23;13.55;;;;;;;;;;5016354;28;20065;-72
2022/01/26 09:40:37;;;;;;;21.05;13.73;;;;;;;;;;5007502;28;20076;-72
2022/01/26 09:43:04;;;;;;;17.30;12.57;;;;;;;;;;5015094;28;20719;-72
2022/01/26 09:45:34;;;;;;;21.75;13.45;;;;;;;;;;5019275;28;20108;-72
2022/01/26 09:48:00;;;;;;;18.73;13.15;;;;;;;;;;5026861;28;20056;-72
2022/01/26 09:50:27;;;;;;;22.42;15.80;;;;;;;;;;5013015;28;20075;-72
2022/01/26 09:52:55;;;;;;;26.23;16.60;;;;;;;;;;5014606;28;20037;-71
2022/01/26 09:55:21;;;;;;;19.02;12.13;;;;;;;;;;5014264;28;20057;-71
2022/01/26 09:57:47;;;;;;;14.20;10.95;;;;;;;;;;5014174;28;20088;-72
2022/01/26 10:00:14;;;;;;;13.85;10.00;;;;;;;;;;5014194;28;20038;-72
2022/01/26 10:02:43;;;;;;;13.45;9.50;;;;;;;;;;5013639;28;20037;-72
2022/01/26 10:05:11;;;;;;;14.43;9.15;;;;;;;;;;5014186;28;20392;-72
2022/01/26 10:08:09;;;;;;;13.02;9.05;;;;;;;;;;5014327;28;20497;-72
2022/01/26 10:16:02;;;;;;;16.10;8.85;;;;;;;;;;5014254;28;20116;-71
2022/01/26 10:18:30;;;;;;;15.18;8.93;;;;;;;;;;5013846;28;20041;-71
2022/01/26 10:20:57;;;;;;;20.77;12.95;;;;;;;;;;5013910;28;20102;-71
2022/01/26 10:23:26;;;;;;;15.55;10.73;;;;;;;;;;5013886;28;20054;-71
2022/01/26 10:26:07;;;;;;;61.70;34.50;;;;;;;;;;5013588;28;20045;-72
2022/01/26 10:28:52;;;;;;;14.88;9.15;;;;;;;;;;5013864;28;20037;-71
2022/01/26 10:31:28;;;;;;;10.27;8.18;;;;;;;;;;5013572;28;20041;-71
2022/01/26 10:33:59;;;;;;;13.45;9.13;;;;;;;;;;5013076;28;20525;-72
2022/01/26 10:36:26;;;;;;;10.35;7.60;;;;;;;;;;5013879;28;20038;-72
2022/01/26 10:39:04;;;;;;;11.82;7.68;;;;;;;;;;5013222;28;20032;-72
2022/01/26 10:41:31;;;;;;;9.90;7.85;;;;;;;;;;5012941;28;20116;-72
2022/01/26 10:43:59;;;;;;;12.15;9.25;;;;;;;;;;5012972;28;20045;-72
2022/01/26 10:46:31;;;;;;;10.85;8.05;;;;;;;;;;5013719;28;20038;-72
2022/01/26 10:54:27;;;;;;;11.38;7.07;;;;;;;;;;5013388;28;20037;-72
2022/01/26 10:56:54;;;;;;;10.30;7.00;;;;;;;;;;5013497;28;20034;-72
2022/01/26 10:59:20;;;;;;;9.50;6.68;;;;;;;;;;5011567;28;20045;-72
2022/01/26 11:01:46;;;;;;;10.88;7.22;;;;;;;;;;5010705;28;20358;-73
2022/01/26 11:04:12;;;;;;;11.75;7.65;;;;;;;;;;5012669;28;20052;-72
2022/01/26 11:06:40;;;;;;;10.82;6.82;;;;;;;;;;5011686;28;20045;-73
2022/01/26 11:09:12;;;;;;;10.40;7.10;;;;;;;;;;5011755;28;20074;-73
2022/01/26 11:11:41;;;;;;;12.63;6.90;;;;;;;;;;4994944;28;20068;-73
2022/01/26 11:14:15;;;;;;;9.07;6.95;;;;;;;;;;4992133;28;20184;-72
2022/01/26 11:16:48;;;;;;;11.43;8.55;;;;;;;;;;4993403;28;20046;-73
2022/01/26 11:19:15;;;;;;;20.83;12.82;;;;;;;;;;4993424;28;20100;-73
2022/01/26 11:21:42;;;;;;;14.70;9.98;;;;;;;;;;4992255;28;20030;-72
2022/01/26 11:24:11;;;;;;;28.40;19.58;;;;;;;;;;4993053;28;20072;-72
2022/01/26 11:26:39;;;;;;;9.30;7.18;;;;;;;;;;4993497;28;20034;-72
2022/01/26 11:29:37;;;;;;;11.38;7.65;;;;;;;;;;4993058;28;20034;-72
2022/01/26 11:32:07;;;;;;;10.77;6.68;;;;;;;;;;4995463;28;20062;-72
2022/01/26 11:34:34;;;;;;;11.80;6.88;;;;;;;;;;5004339;28;20124;-72
2022/01/26 11:37:02;;;;;;;10.02;6.65;;;;;;;;;;5012530;28;20049;-72
2022/01/26 11:45:13;;;;;;;14.15;6.65;;;;;;;;;;5010444;28;20041;-72
2022/01/26 11:47:41;;;;;;;9.20;6.90;;;;;;;;;;5011434;28;20042;-72
2022/01/26 11:50:14;;;;;;;10.77;6.15;;;;;;;;;;5012858;28;20116;-72
2022/01/26 11:52:40;;;;;;;10.75;7.10;;;;;;;;;;5013173;28;20116;-73
2022/01/26 11:55:25;;;;;;;9.73;6.95;;;;;;;;;;5012315;28;20586;-72
2022/01/26 11:57:54;;;;;;;8.30;6.82;;;;;;;;;;5012332;28;20040;-72
2022/01/26 12:00:38;;;;;;;9.75;7.28;;;;;;;;;;5012352;28;20048;-72
2022/01/26 12:03:09;;;;;;;16.00;10.38;;;;;;;;;;5013152;28;20057;-72
2022/01/26 12:05:44;;;;;;;7.28;6.00;;;;;;;;;;5010772;28;20116;-72
2022/01/26 12:08:10;;;;;;;9.88;6.18;;;;;;;;;;5011081;28;20058;-72
2022/01/26 12:10:38;;;;;;;10.50;6.53;;;;;;;;;;5012204;28;20048;-73
2022/01/26 12:13:12;;;;;;;8.60;6.15;;;;;;;;;;5011619;28;20041;-73
2022/01/26 12:15:44;;;;;;;7.30;6.35;;;;;;;;;;5011101;28;20054;-73
2022/01/26 12:18:26;;;;;;;8.38;5.72;;;;;;;;;;5015049;28;20485;-73
2022/01/26 12:38:32;;;;;;;17.77;12.65;;;;;;;;;;5010628;28;20038;-72
2022/01/26 12:42:00;;;;;;;11.75;7.82;;;;;;;;;;5009453;28;20469;-73
2022/01/26 12:44:15;;;;;;;8.73;6.45;;;;;;;;;;5019917;28;20081;-73
2022/01/26 12:46:41;;;;;;;8.55;6.60;;;;;;;;;;4997968;28;20069;-72
2022/01/26 12:49:08;;;;;;;9.88;6.72;;;;;;;;;;5010226;28;20041;-73
2022/01/26 12:51:44;;;;;;;8.82;6.32;;;;;;;;;;5015157;28;20065;-73
2022/01/26 12:54:10;;;;;;;10.50;7.80;;;;;;;;;;5015207;28;20092;-72
2022/01/26 12:56:37;;;;;;;10.52;6.68;;;;;;;;;;5014984;28;20037;-71
2022/01/26 12:59:07;;;;;;;9.52;6.95;;;;;;;;;;5015657;28;20034;-72
2022/01/26 13:01:34;;;;;;;10.80;7.78;;;;;;;;;;5016116;28;20061;-71
2022/01/26 13:04:01;;;;;;;10.30;6.70;;;;;;;;;;5015807;28;20068;-71
2022/01/26 13:06:28;;;;;;;9.43;7.07;;;;;;;;;;5015257;28;20044;-71
2022/01/26 13:08:56;;;;;;;12.38;7.25;;;;;;;;;;4990339;28;20112;-73
2022/01/26 13:11:25;;;;;;;9.80;6.40;;;;;;;;;;4998561;28;20038;-72
2022/01/26 13:14:19;;;;;;;19.60;12.82;;;;;;;;;;4995730;28;20088;-74
2022/01/26 13:17:01;;;;;;;19.17;12.32;;;;;;;;;;5008738;28;20084;-73
2022/01/26 13:19:39;;;;;;;9.60;6.60;;;;;;;;;;5005592;28;20042;-73
2022/01/26 13:27:36;;;;;;;29.27;21.08;;;;;;;;;;5032268;28;20046;-73
2022/01/26 13:30:23;;;;;;;28.52;19.00;;;;;;;;;;4998299;28;20037;-73
2022/01/26 13:35:47;;;;;;;59.03;42.88;;;;;;;;;;5009085;28;20062;-73
2022/01/26 13:41:00;;;;;;;54.17;42.42;;;;;;;;;;5015023;28;20038;-72
2022/01/26 13:51:32;;;;;;;14.88;9.45;;;;;;;;;;5014918;28;20029;-74
2022/01/26 13:54:23;;;;;;;10.00;7.28;;;;;;;;;;5013354;28;20068;-73
2022/01/26 13:57:07;;;;;;;7.50;6.25;;;;;;;;;;5015151;28;20480;-73
2022/01/26 13:59:44;;;;;;;7.95;6.03;;;;;;;;;;5014856;28;20496;-74
2022/01/26 14:02:11;;;;;;;11.65;6.63;;;;;;;;;;5015198;28;20037;-73
2022/01/26 14:04:37;;;;;;;11.02;6.78;;;;;;;;;;5013556;28;20076;-74
2022/01/26 14:07:03;;;;;;;10.55;6.40;;;;;;;;;;5016174;28;20096;-74
2022/01/26 14:09:29;;;;;;;13.50;9.60;;;;;;;;;;5012117;28;20041;-73
2022/01/26 14:11:56;;;;;;;15.15;8.25;;;;;;;;;;5035139;28;20045;-71
2022/01/26 14:14:29;;;;;;;8.45;5.97;;;;;;;;;;5034152;28;20069;-76
2022/01/26 14:16:58;;;;;;;9.02;6.15;;;;;;;;;;5023577;28;20042;-73
2022/01/26 14:22:30;;;;;;;9.50;6.63;;;;;;;;;;5018683;28;20026;-72
2022/01/26 14:27:41;;;;;;;;;;;;;;;;;;5015556;28;20033;-73
2022/01/26 14:33:36;;;;;;;11.57;7.13;;;;;;;;;;4995382;28;20422;-74
2022/01/26 14:35:48;;;;;;;10.32;7.38;;;;;;;;;;4996889;28;20113;-74
2022/01/26 15:40:20;;;;;;;13.10;9.45;;;;;;;;;;5032672;28;20087;-72
2022/01/26 16:39:19;;;;;;;30.77;19.48;;;;;;;;;;5012399;28;20413;-72
2022/01/26 17:02:30;;;;;;;26.45;15.35;;;;;;;;;;5011245;28;20115;-72
2022/01/26 18:49:25;;;;;;;14.00;9.32;;;;;;;;;;5033028;28;20029;-73
2022/01/26 18:51:58;;;;;;;13.73;10.00;;;;;;;;;;5033789;28;20033;-73
2022/01/26 18:54:26;;;;;;;17.75;14.07;;;;;;;;;;5033359;28;20045;-73
2022/01/26 18:56:53;;;;;;;20.15;14.77;;;;;;;;;;5031326;28;20392;-73
2022/01/26 18:59:19;;;;;;;16.95;10.55;;;;;;;;;;5032754;28;20033;-73
2022/01/26 19:01:46;;;;;;;15.85;11.20;;;;;;;;;;5033180;28;20030;-73
2022/01/26 19:04:12;;;;;;;16.55;11.00;;;;;;;;;;5032945;28;20041;-73
2022/01/26 19:06:41;;;;;;;24.08;17.17;;;;;;;;;;5025623;28;20532;-73
2022/01/26 19:09:08;;;;;;;15.23;11.15;;;;;;;;;;5012455;28;20056;-73
2022/01/26 19:11:35;;;;;;;18.42;13.07;;;;;;;;;;5013087;28;20164;-74
2022/01/26 19:14:04;;;;;;;113.75;57.05;;;;;;;;;;4986465;28;20068;-73
2022/01/26 19:16:43;;;;;;;47.67;28.35;;;;;;;;;;5008894;28;20029;-73
2022/01/26 19:26:53;;;;;;;18.40;11.70;;;;;;;;;;5015128;28;20056;-73
2022/01/26 19:40:27;;;;;;;28.92;19.55;;;;;;;;;;5012661;28;20057;-73
2022/01/26 19:50:50;;;;;;;38.10;24.58;;;;;;;;;;5014568;28;20407;-72
2022/01/26 19:53:16;;;;;;;86.55;62.42;;;;;;;;;;5012301;28;20045;-73
2022/01/26 19:55:42;;;;;;;23.08;15.57;;;;;;;;;;5014136;28;20041;-72
2022/01/26 19:58:08;;;;;;;19.83;11.60;;;;;;;;;;5014424;28;20119;-72
2022/01/26 20:00:39;;;;;;;13.30;9.80;;;;;;;;;;5013935;28;20558;-72
2022/01/26 20:03:05;;;;;;;12.40;8.85;;;;;;;;;;5016554;28;20080;-74
2022/01/26 20:05:34;;;;;;;18.15;10.90;;;;;;;;;;5032856;28;20040;-73
2022/01/26 20:08:08;;;;;;;193.48;115.38;;;;;;;;;;5026080;28;20034;-74
2022/01/26 20:10:40;;;;;;;94.35;54.63;;;;;;;;;;5014988;28;20037;-74
2022/01/26 20:13:15;;;;;;;488.02;320.95;;;;;;;;;;5012385;28;20128;-74
2022/01/26 20:15:41;;;;;;;110.35;68.38;;;;;;;;;;5014193;28;20053;-74
2022/01/26 20:18:07;;;;;;;94.25;59.15;;;;;;;;;;5014189;28;20048;-74
2022/01/26 20:20:33;;;;;;;69.07;36.35;;;;;;;;;;5013385;28;20084;-74
2022/01/26 20:22:59;;;;;;;21.73;14.32;;;;;;;;;;5013034;28;20046;-74
2022/01/26 20:25:26;;;;;;;33.67;20.05;;;;;;;;;;5012703;28;20026;-74
2022/01/26 20:27:52;;;;;;;71.75;46.55;;;;;;;;;;5012987;28;20045;-74
2022/01/26 20:30:21;;;;;;;183.15;95.80;;;;;;;;;;5012737;28;20046;-74
2022/01/26 20:32:48;;;;;;;52.58;28.75;;;;;;;;;;5011842;28;20046;-73
2022/01/26 20:35:16;;;;;;;21.95;13.45;;;;;;;;;;5003219;28;20029;-73
2022/01/26 20:37:43;;;;;;;17.23;9.57;;;;;;;;;;5013480;28;20096;-73
2022/01/26 20:40:10;;;;;;;16.98;8.35;;;;;;;;;;5012964;28;20044;-74
2022/01/26 20:42:37;;;;;;;103.07;67.82;;;;;;;;;;5013221;28;20041;-73
2022/01/26 20:45:06;;;;;;;33.03;21.95;;;;;;;;;;5011980;28;20048;-73
2022/01/26 20:47:35;;;;;;;25.65;17.50;;;;;;;;;;5028767;28;20095;-73
2022/01/26 20:50:01;;;;;;;37.42;24.27;;;;;;;;;;5012871;28;20045;-73
2022/01/26 20:52:27;;;;;;;31.65;25.58;;;;;;;;;;5012435;28;20037;-73
2022/01/26 20:54:54;;;;;;;14.75;9.13;;;;;;;;;;5014436;28;20493;-73
2022/01/26 20:57:21;;;;;;;18.70;11.32;;;;;;;;;;5011665;28;20129;-73
2022/01/26 20:59:56;;;;;;;15.13;11.20;;;;;;;;;;5006260;28;20081;-74
2022/01/26 21:02:26;;;;;;;15.02;9.43;;;;;;;;;;4996099;28;20066;-73
2022/01/26 21:04:53;;;;;;;14.20;9.00;;;;;;;;;;4997093;28;20140;-74
2022/01/26 21:07:20;;;;;;;24.35;16.35;;;;;;;;;;4997075;28;20042;-71
2022/01/26 21:09:46;;;;;;;18.08;12.40;;;;;;;;;;4996546;28;20109;-71
2022/01/26 21:12:12;;;;;;;14.68;9.63;;;;;;;;;;5015393;28;20038;-73
2022/01/26 21:14:38;;;;;;;13.88;8.02;;;;;;;;;;5016675;28;20050;-72
2022/01/26 21:17:05;;;;;;;11.13;6.97;;;;;;;;;;5015714;28;20489;-71
2022/01/26 21:19:32;;;;;;;33.22;21.73;;;;;;;;;;5015281;28;20041;-71
2022/01/26 21:22:02;;;;;;;48.47;31.45;;;;;;;;;;5015268;28;20030;-71
2022/01/26 21:24:29;;;;;;;24.40;15.27;;;;;;;;;;5015205;28;20053;-71
2022/01/26 21:26:56;;;;;;;16.15;11.68;;;;;;;;;;5014993;28;20036;-72
2022/01/26 21:29:23;;;;;;;20.65;11.20;;;;;;;;;;5015650;28;20030;-70
2022/01/26 21:31:49;;;;;;;34.30;21.10;;;;;;;;;;5016076;28;20037;-72
2022/01/26 21:34:15;;;;;;;23.48;16.05;;;;;;;;;;5015844;28;20033;-71
2022/01/26 21:36:42;;;;;;;19.45;12.32;;;;;;;;;;5016960;28;20028;-71
2022/01/26 21:39:08;;;;;;;24.45;16.38;;;;;;;;;;5015964;28;20049;-72
2022/01/26 21:41:38;;;;;;;37.30;21.98;;;;;;;;;;5031807;28;20381;-71
2022/01/26 21:44:05;;;;;;;25.13;14.63;;;;;;;;;;5016618;28;20489;-71